Time;durP1;ratioP1;P1;durP2;ratioP2;P2;SDS_P1;SDS_P2;PMS_P1;PMS_P2;Temp;Humidity;BMP_temperature;BMP_pressure;BME280_temperature;BME280_humidity;BME280_pressure;Samples;Min_cycle;Max_cycle;Signal;HPM_P1;HPM_P2
2022/07/08 00:02:27;;;;;;;3.73;1.03;;;18.30;94.80;;;;;;6862400;28;20934;-78
2022/07/08 00:05:50;;;;;;;3.70;1.10;;;18.20;94.80;;;;;;6863009;28;20468;-78
2022/07/08 00:09:12;;;;;;;3.50;1.23;;;18.20;94.80;;;;;;6862782;28;20451;-78
2022/07/08 00:12:34;;;;;;;6.07;1.40;;;18.00;94.60;;;;;;6860955;28;20526;-79
2022/07/08 00:15:57;;;;;;;3.78;1.20;;;17.90;94.10;;;;;;6867091;28;20490;-78
2022/07/08 00:19:20;;;;;;;3.47;1.30;;;17.90;94.00;;;;;;6863549;28;20444;-79
2022/07/08 00:22:42;;;;;;;6.05;1.45;;;17.90;93.90;;;;;;6862739;28;20432;-77
2022/07/08 00:26:04;;;;;;;6.55;1.70;;;17.90;93.50;;;;;;6862339;28;20432;-77
2022/07/08 00:29:26;;;;;;;4.00;1.20;;;18.00;93.40;;;;;;6860642;28;20452;-79
2022/07/08 00:32:50;;;;;;;5.85;1.58;;;17.90;93.40;;;;;;6862559;28;20540;-78
2022/07/08 00:36:12;;;;;;;7.30;1.65;;;18.00;93.10;;;;;;6862135;28;20489;-78
2022/07/08 00:39:34;;;;;;;6.47;1.60;;;17.90;93.00;;;;;;6862672;28;20440;-77
2022/07/08 00:42:56;;;;;;;8.00;1.63;;;17.90;92.90;;;;;;6862317;28;20472;-77
2022/07/08 00:46:19;;;;;;;6.78;1.50;;;17.90;92.80;;;;;;6860541;28;20553;-79
2022/07/08 00:49:43;;;;;;;7.43;1.60;;;17.90;92.80;;;;;;6861195;28;20596;-78
2022/07/08 00:53:05;;;;;;;8.63;1.70;;;17.90;92.80;;;;;;6860447;28;20473;-77
2022/07/08 00:56:28;;;;;;;7.53;1.80;;;18.00;92.70;;;;;;6860491;28;20797;-80
2022/07/08 00:59:50;;;;;;;6.00;1.60;;;17.90;92.50;;;;;;6860600;28;20493;-79
2022/07/08 01:03:12;;;;;;;6.60;1.65;;;17.80;92.60;;;;;;6860996;28;20443;-78
2022/07/08 01:06:36;;;;;;;6.53;1.70;;;17.80;92.30;;;;;;6882326;28;20434;-78
2022/07/08 01:09:59;;;;;;;7.25;1.80;;;17.70;92.00;;;;;;6861243;28;20448;-78
2022/07/08 01:13:22;;;;;;;7.63;1.67;;;17.70;91.60;;;;;;6860855;28;20446;-78
2022/07/08 01:16:44;;;;;;;6.53;1.87;;;17.80;91.10;;;;;;6861707;28;20515;-78
2022/07/08 01:20:08;;;;;;;8.25;2.10;;;17.80;91.10;;;;;;6861336;28;20538;-78
2022/07/08 01:23:31;;;;;;;9.10;2.20;;;17.70;89.80;;;;;;6863430;28;20510;-77
2022/07/08 01:26:54;;;;;;;9.50;2.40;;;17.60;89.70;;;;;;6850653;28;20448;-78
2022/07/08 01:30:17;;;;;;;7.63;2.10;;;17.60;87.90;;;;;;6860607;28;20944;-76
2022/07/08 01:33:40;;;;;;;7.13;2.30;;;17.50;88.10;;;;;;6860623;28;20432;-80
2022/07/08 01:37:02;;;;;;;7.78;2.35;;;17.50;88.10;;;;;;6860886;28;20436;-79
2022/07/08 01:40:26;;;;;;;9.50;2.23;;;17.50;88.10;;;;;;6860937;28;21000;-78
2022/07/08 01:43:48;;;;;;;6.70;2.40;;;17.50;87.90;;;;;;6860838;28;20932;-78
2022/07/08 01:47:10;;;;;;;8.88;2.50;;;17.50;88.40;;;;;;6859104;28;20948;-78
2022/07/08 01:50:33;;;;;;;10.27;2.90;;;17.40;88.50;;;;;;6860079;28;20463;-77
2022/07/08 01:53:55;;;;;;;8.85;2.55;;;17.30;89.10;;;;;;6859557;28;20440;-78
2022/07/08 01:57:21;;;;;;;10.32;2.58;;;17.30;89.80;;;;;;6879662;28;20432;-78
2022/07/08 02:00:43;;;;;;;9.43;2.53;;;17.20;90.20;;;;;;6865636;28;20444;-77
2022/07/08 02:04:05;;;;;;;7.68;2.40;;;17.10;90.40;;;;;;6861024;28;20428;-78
2022/07/08 02:07:27;;;;;;;6.70;2.60;;;17.00;90.60;;;;;;6843919;28;20432;-79
2022/07/08 02:14:30;;;;;;;8.48;2.78;;;17.00;90.50;;;;;;6877729;28;20436;-77
2022/07/08 02:17:52;;;;;;;9.57;3.00;;;16.80;90.50;;;;;;6840000;28;20443;-78
2022/07/08 02:21:14;;;;;;;8.67;2.60;;;16.80;90.50;;;;;;6858935;28;20440;-77
2022/07/08 02:24:37;;;;;;;7.80;2.42;;;16.80;90.40;;;;;;6859525;28;20436;-78
2022/07/08 02:27:59;;;;;;;10.45;2.53;;;16.80;90.60;;;;;;6859059;28;20478;-77
2022/07/08 02:31:22;;;;;;;9.05;2.75;;;16.80;90.50;;;;;;6859584;28;20428;-80
2022/07/08 02:34:45;;;;;;;7.10;2.50;;;16.70;90.30;;;;;;6857609;28;20471;-79
2022/07/08 02:38:07;;;;;;;8.15;2.67;;;16.60;90.60;;;;;;6858952;28;20438;-79
2022/07/08 02:41:29;;;;;;;9.37;3.07;;;16.60;90.60;;;;;;6857990;28;20884;-79
2022/07/08 02:44:51;;;;;;;7.47;2.72;;;16.60;90.50;;;;;;6858573;28;20491;-79
2022/07/08 02:48:14;;;;;;;9.77;2.60;;;16.50;90.70;;;;;;6870992;28;20472;-79
2022/07/08 02:51:37;;;;;;;9.80;2.65;;;16.60;90.80;;;;;;6858647;28;20462;-78
2022/07/08 02:54:59;;;;;;;7.78;2.47;;;16.50;90.70;;;;;;6858699;28;20946;-77
2022/07/08 02:58:21;;;;;;;9.88;2.47;;;16.50;90.60;;;;;;6858581;28;20937;-77
2022/07/08 03:01:43;;;;;;;9.75;2.50;;;16.50;90.70;;;;;;6856798;28;20943;-77
2022/07/08 03:05:08;;;;;;;9.07;2.47;;;16.50;90.60;;;;;;6877432;28;20445;-78
2022/07/08 03:08:30;;;;;;;9.82;2.40;;;16.40;90.70;;;;;;6886045;28;20433;-77
2022/07/08 03:11:52;;;;;;;9.20;2.65;;;16.40;90.70;;;;;;6890580;28;20512;-77
2022/07/08 03:15:14;;;;;;;9.60;2.47;;;16.40;90.60;;;;;;6890567;28;20919;-79
2022/07/08 03:18:36;;;;;;;7.18;2.50;;;16.40;90.60;;;;;;6864430;28;20443;-77
2022/07/08 03:22:00;;;;;;;8.52;2.20;;;16.40;90.90;;;;;;6880728;28;20916;-79
2022/07/08 03:25:22;;;;;;;9.52;2.60;;;16.30;90.60;;;;;;6880317;28;20440;-78
2022/07/08 03:28:44;;;;;;;10.48;2.58;;;16.30;91.10;;;;;;6862075;28;20972;-79
2022/07/08 03:32:07;;;;;;;9.30;2.50;;;16.10;91.20;;;;;;6861924;28;20486;-78
2022/07/08 03:35:29;;;;;;;10.13;2.63;;;16.10;91.10;;;;;;6862851;28;20898;-79
2022/07/08 03:38:53;;;;;;;8.55;2.72;;;16.10;91.40;;;;;;6879627;28;20482;-78
2022/07/08 03:42:15;;;;;;;9.18;2.40;;;16.10;91.20;;;;;;6885835;28;20438;-79
2022/07/08 03:45:37;;;;;;;10.57;2.35;;;16.20;91.60;;;;;;6862512;28;20470;-78
2022/07/08 03:48:59;;;;;;;8.30;2.40;;;16.20;91.50;;;;;;6861878;28;20930;-80
2022/07/08 03:52:21;;;;;;;8.90;2.50;;;16.20;91.20;;;;;;6862496;28;21069;-79
2022/07/08 03:55:46;;;;;;;9.32;2.33;;;16.10;91.60;;;;;;6878021;28;20912;-78
2022/07/08 03:59:08;;;;;;;8.90;2.50;;;16.10;91.30;;;;;;6866392;28;20481;-77
2022/07/08 04:02:30;;;;;;;7.57;2.10;;;16.20;91.30;;;;;;6861496;28;20493;-77
2022/07/08 04:05:52;;;;;;;9.68;2.45;;;16.10;91.50;;;;;;6862304;28;20942;-77
2022/07/08 04:09:14;;;;;;;8.45;2.30;;;16.10;91.20;;;;;;6862432;28;20436;-79
2022/07/08 04:12:37;;;;;;;9.47;2.30;;;16.10;91.60;;;;;;6862600;28;20436;-78
2022/07/08 04:15:59;;;;;;;8.97;2.50;;;16.10;91.70;;;;;;6857862;28;20435;-78
2022/07/08 04:19:21;;;;;;;7.40;2.35;;;16.00;91.40;;;;;;6860966;28;20892;-79
2022/07/08 04:22:43;;;;;;;8.18;2.35;;;16.00;91.80;;;;;;6861155;28;20475;-79
2022/07/08 04:26:05;;;;;;;9.05;2.40;;;15.90;91.60;;;;;;6860017;28;20988;-78
2022/07/08 04:29:29;;;;;;;8.65;2.40;;;16.10;91.70;;;;;;6862333;28;20503;-77
2022/07/08 04:32:51;;;;;;;9.88;2.17;;;16.10;91.60;;;;;;6861519;28;20488;-79
2022/07/08 04:36:13;;;;;;;9.83;2.30;;;16.00;91.30;;;;;;6861407;28;20462;-78
2022/07/08 04:39:35;;;;;;;9.82;2.50;;;16.10;91.80;;;;;;6861589;28;20471;-79
2022/07/08 04:42:57;;;;;;;9.30;2.53;;;16.00;91.50;;;;;;6861669;28;20479;-79
2022/07/08 04:46:20;;;;;;;7.60;2.53;;;16.10;91.90;;;;;;6861612;28;20482;-78
2022/07/08 04:49:42;;;;;;;8.43;2.40;;;16.00;92.20;;;;;;6861200;28;20538;-79
2022/07/08 04:53:04;;;;;;;8.55;2.30;;;16.10;92.40;;;;;;6861316;28;20458;-77
2022/07/08 04:56:26;;;;;;;9.07;2.53;;;16.10;92.90;;;;;;6860831;28;20436;-78
2022/07/08 04:59:48;;;;;;;9.23;2.35;;;16.10;92.30;;;;;;6868542;28;20466;-79
2022/07/08 05:03:12;;;;;;;10.43;2.38;;;16.00;92.40;;;;;;6849747;28;20435;-78
2022/07/08 05:06:35;;;;;;;9.50;2.25;;;16.00;92.70;;;;;;6860907;28;20420;-79
2022/07/08 05:09:57;;;;;;;8.45;2.47;;;15.90;92.50;;;;;;6860918;28;20957;-77
2022/07/08 05:13:19;;;;;;;8.25;2.50;;;16.00;92.50;;;;;;6860576;28;20482;-79
2022/07/08 05:16:42;;;;;;;8.23;2.17;;;15.90;92.50;;;;;;6860530;28;21024;-78
2022/07/08 05:20:07;;;;;;;9.43;2.45;;;15.90;92.40;;;;;;6860871;28;20432;-78
2022/07/08 05:23:29;;;;;;;9.60;2.60;;;16.00;92.90;;;;;;6860379;28;20501;-78
2022/07/08 05:26:51;;;;;;;8.68;2.58;;;16.00;93.10;;;;;;6860286;28;20448;-79
2022/07/08 05:30:14;;;;;;;8.90;2.38;;;15.90;92.70;;;;;;6860396;28;20484;-78
2022/07/08 05:33:36;;;;;;;8.52;2.30;;;15.90;92.80;;;;;;6859940;28;20428;-78
2022/07/08 05:37:00;;;;;;;8.07;2.37;;;16.00;93.00;;;;;;6860711;28;20435;-78
2022/07/08 05:40:22;;;;;;;10.10;2.67;;;16.00;92.90;;;;;;6860251;28;20496;-77
2022/07/08 05:43:44;;;;;;;9.88;2.17;;;16.10;92.50;;;;;;6859935;28;20447;-77
2022/07/08 05:47:08;;;;;;;9.13;2.22;;;16.10;92.50;;;;;;6859876;28;20809;-79
2022/07/08 05:50:30;;;;;;;8.37;2.37;;;16.10;91.90;;;;;;6859465;28;20443;-79
2022/07/08 05:53:55;;;;;;;7.95;2.30;;;16.10;92.20;;;;;;6859759;28;20475;-79
2022/07/08 05:57:17;;;;;;;8.88;2.10;;;16.10;91.90;;;;;;6859468;28;20902;-78
2022/07/08 06:00:39;;;;;;;13.00;2.55;;;16.20;91.70;;;;;;6873683;28;20434;-78
2022/07/08 06:04:01;;;;;;;8.88;2.03;;;16.30;90.80;;;;;;6886142;28;20953;-78
2022/07/08 06:07:23;;;;;;;8.57;2.17;;;16.30;91.50;;;;;;6885939;28;20474;-79
2022/07/08 06:10:46;;;;;;;7.00;1.90;;;16.40;90.60;;;;;;6877931;28;20942;-79
2022/07/08 06:14:08;;;;;;;10.68;2.28;;;16.40;90.70;;;;;;6859516;28;20477;-79
2022/07/08 06:17:31;;;;;;;10.35;2.10;;;16.30;90.10;;;;;;6859397;28;20438;-77
2022/07/08 06:20:53;;;;;;;8.23;2.07;;;16.50;89.80;;;;;;6859100;28;20933;-76
2022/07/08 06:24:15;;;;;;;7.15;2.05;;;16.50;90.20;;;;;;6858865;28;20489;-78
2022/07/08 06:27:39;;;;;;;6.18;1.90;;;16.50;89.60;;;;;;6859326;28;20432;-78
2022/07/08 06:31:01;;;;;;;9.02;1.80;;;16.60;90.10;;;;;;6858774;28;20475;-79
2022/07/08 06:34:23;;;;;;;7.90;1.70;;;16.60;89.20;;;;;;6860137;28;20519;-79
2022/07/08 06:37:45;;;;;;;7.75;1.70;;;16.70;89.30;;;;;;6859130;28;20459;-78
2022/07/08 06:41:07;;;;;;;8.40;1.70;;;16.80;88.50;;;;;;6858751;28;20432;-78
2022/07/08 06:44:30;;;;;;;11.93;1.80;;;16.90;87.10;;;;;;6861821;28;20775;-78
2022/07/08 06:47:52;;;;;;;6.17;1.67;;;16.90;88.20;;;;;;6863908;28;20815;-78
2022/07/08 06:51:14;;;;;;;8.95;1.85;;;16.90;86.90;;;;;;6863683;28;20490;-78
2022/07/08 06:54:36;;;;;;;6.73;1.87;;;17.00;86.20;;;;;;6864009;28;20909;-77
2022/07/08 06:57:59;;;;;;;8.55;2.10;;;17.00;86.50;;;;;;6863643;28;20435;-77
2022/07/08 07:01:22;;;;;;;7.30;2.00;;;17.10;87.30;;;;;;6870976;28;20519;-77
2022/07/08 07:04:45;;;;;;;9.00;2.05;;;17.10;86.30;;;;;;6863917;28;20946;-75
2022/07/08 07:08:07;;;;;;;7.93;2.00;;;17.20;87.80;;;;;;6863512;28;20471;-78
2022/07/08 07:11:29;;;;;;;8.02;1.90;;;17.20;87.10;;;;;;6863337;28;20874;-77
2022/07/08 07:14:52;;;;;;;7.65;1.98;;;17.30;85.60;;;;;;6863255;28;20447;-77
2022/07/08 07:18:15;;;;;;;7.93;1.90;;;17.40;85.60;;;;;;6863856;28;20812;-79
2022/07/08 07:21:37;;;;;;;7.47;2.00;;;17.40;84.20;;;;;;6863844;28;20534;-79
2022/07/08 07:24:59;;;;;;;9.93;2.08;;;17.80;86.50;;;;;;6863212;28;20858;-79
2022/07/08 07:28:21;;;;;;;7.10;1.70;;;18.00;84.10;;;;;;6862983;28;20467;-79
2022/07/08 07:31:43;;;;;;;8.20;2.20;;;18.00;82.20;;;;;;6865653;28;20865;-80
2022/07/08 07:35:08;;;;;;;7.53;1.80;;;18.00;82.70;;;;;;6887914;28;20835;-81
2022/07/08 07:38:30;;;;;;;7.57;1.98;;;18.20;84.80;;;;;;6889054;28;20442;-80
2022/07/08 07:41:52;;;;;;;7.00;1.52;;;18.40;83.70;;;;;;6889364;28;20438;-79
2022/07/08 07:45:14;;;;;;;6.57;1.52;;;18.50;83.80;;;;;;6889220;28;20744;-80
2022/07/08 07:48:36;;;;;;;7.50;1.67;;;18.50;78.60;;;;;;6888847;28;20577;-78
2022/07/08 07:52:00;;;;;;;8.30;1.97;;;18.50;81.40;;;;;;6888009;28;20488;-80
2022/07/08 07:55:22;;;;;;;8.27;1.90;;;18.60;82.30;;;;;;6887513;28;20470;-81
2022/07/08 07:58:44;;;;;;;11.15;1.85;;;18.70;80.20;;;;;;6887234;28;20474;-76
2022/07/08 08:02:06;;;;;;;7.55;1.83;;;18.70;82.00;;;;;;6860866;28;20977;-79
2022/07/08 08:05:29;;;;;;;7.55;1.85;;;18.70;80.70;;;;;;6861715;28;20439;-77
2022/07/08 08:08:52;;;;;;;8.18;1.90;;;18.70;78.10;;;;;;6862410;28;20463;-78
2022/07/08 08:12:14;;;;;;;7.18;1.77;;;18.80;78.80;;;;;;6861348;28;20865;-81
2022/07/08 08:15:36;;;;;;;6.65;1.70;;;19.00;79.90;;;;;;6861337;28;20475;-81
2022/07/08 08:18:58;;;;;;;7.82;1.70;;;19.00;78.90;;;;;;6861424;28;20440;-77
2022/07/08 08:22:20;;;;;;;5.77;1.70;;;19.00;78.90;;;;;;6861619;28;20470;-78
2022/07/08 08:25:43;;;;;;;6.32;1.50;;;19.00;76.20;;;;;;6861455;28;20443;-78
2022/07/08 08:29:06;;;;;;;7.70;1.50;;;18.70;76.10;;;;;;6888744;28;20490;-78
2022/07/08 08:32:28;;;;;;;7.83;1.83;;;18.50;77.60;;;;;;6888822;28;20485;-80
2022/07/08 08:35:50;;;;;;;6.72;1.90;;;18.50;77.80;;;;;;6888694;28;20437;-78
2022/07/08 08:39:12;;;;;;;7.33;2.07;;;18.70;76.10;;;;;;6889622;28;20437;-79
2022/07/08 08:42:36;;;;;;;8.00;2.00;;;18.60;76.90;;;;;;6888973;28;20434;-79
2022/07/08 08:45:58;;;;;;;7.10;1.90;;;18.70;77.30;;;;;;6887467;28;20445;-78
2022/07/08 08:49:21;;;;;;;6.25;1.70;;;18.80;77.20;;;;;;6867447;28;20954;-80
2022/07/08 08:52:45;;;;;;;8.57;2.10;;;18.80;79.10;;;;;;6831988;28;20445;-80
2022/07/08 08:56:11;;;;;;;7.60;1.90;;;19.00;76.70;;;;;;6832507;29;20448;-79
2022/07/08 08:59:35;;;;;;;7.85;2.00;;;18.90;76.20;;;;;;6843226;28;20517;-78
2022/07/08 09:02:58;;;;;;;9.10;2.27;;;18.90;78.20;;;;;;6858847;28;21007;-80
2022/07/08 09:06:20;;;;;;;9.43;1.98;;;18.70;77.40;;;;;;6858287;28;20439;-80
2022/07/08 09:09:42;;;;;;;6.10;2.10;;;18.60;76.60;;;;;;6856871;28;20432;-80
2022/07/08 09:13:10;;;;;;;8.98;2.00;;;18.70;75.80;;;;;;6857811;28;21012;-80
2022/07/08 09:16:33;;;;;;;7.18;1.98;;;18.70;76.60;;;;;;6858239;28;20574;-80
2022/07/08 09:19:55;;;;;;;5.83;1.70;;;18.70;75.10;;;;;;6859542;28;20471;-78
2022/07/08 09:23:20;;;;;;;8.80;1.75;;;18.70;74.70;;;;;;6858615;28;20482;-81
2022/07/08 09:26:42;;;;;;;6.82;1.73;;;18.70;73.30;;;;;;6858514;28;20484;-80
2022/07/08 09:30:06;;;;;;;7.63;1.70;;;18.80;73.80;;;;;;6858709;28;20463;-80
2022/07/08 09:33:30;;;;;;;6.18;1.55;;;18.90;73.40;;;;;;6857660;28;20945;-75
2022/07/08 09:36:52;;;;;;;7.75;1.60;;;19.00;73.70;;;;;;6861510;28;20474;-84
2022/07/08 09:40:18;;;;;;;6.68;1.60;;;19.10;74.70;;;;;;6864101;28;20463;-83
2022/07/08 09:43:46;;;;;;;8.98;2.08;;;19.20;73.70;;;;;;6863692;28;21009;-89
2022/07/08 09:47:12;;;;;;;8.20;1.77;;;19.10;74.90;;;;;;6862342;28;20429;-83
2022/07/08 09:50:39;;;;;;;6.97;1.60;;;19.20;71.40;;;;;;6857735;28;20468;-77
2022/07/08 09:54:10;;;;;;;6.93;1.83;;;19.20;72.30;;;;;;6862440;28;20486;-77
2022/07/08 09:57:32;;;;;;;6.68;1.50;;;19.10;72.70;;;;;;6860657;28;20498;-77
2022/07/08 10:00:56;;;;;;;6.30;1.77;;;19.10;73.20;;;;;;6857760;28;20806;-76
2022/07/08 10:04:19;;;;;;;6.32;1.73;;;18.90;72.50;;;;;;6857958;28;20467;-77
2022/07/08 10:07:43;;;;;;;6.47;1.75;;;19.10;73.00;;;;;;6855170;28;20975;-77
2022/07/08 10:11:08;;;;;;;4.82;1.35;;;19.10;70.60;;;;;;6883934;28;20948;-78
2022/07/08 10:14:31;;;;;;;6.22;1.70;;;19.20;70.80;;;;;;6869133;28;20446;-79
2022/07/08 10:17:53;;;;;;;7.67;2.10;;;19.20;70.30;;;;;;6883749;28;20513;-79
2022/07/08 10:21:21;;;;;;;4.97;1.48;;;19.10;70.30;;;;;;6892594;28;20426;-77
2022/07/08 10:24:48;;;;;;;7.97;1.80;;;19.10;70.50;;;;;;6894271;28;20441;-78
2022/07/08 10:28:17;;;;;;;8.52;1.85;;;19.20;72.30;;;;;;6842867;28;20488;-78
2022/07/08 10:31:44;;;;;;;6.22;1.63;;;19.20;72.70;;;;;;6843126;29;20448;-79
2022/07/08 10:35:12;;;;;;;6.57;1.70;;;19.10;71.20;;;;;;6839577;28;20464;-79
2022/07/08 10:38:39;;;;;;;6.72;1.60;;;19.20;70.50;;;;;;6842579;28;20445;-79
2022/07/08 10:42:07;;;;;;;6.00;1.85;;;19.10;70.30;;;;;;6852198;28;20438;-79
2022/07/08 10:45:29;;;;;;;7.30;1.98;;;19.20;72.90;;;;;;6895662;28;20431;-80
2022/07/08 10:48:53;;;;;;;6.75;1.70;;;19.20;72.30;;;;;;6893713;28;20926;-78
2022/07/08 10:52:17;;;;;;;6.70;1.60;;;19.30;71.40;;;;;;6896498;28;20438;-78
2022/07/08 10:55:42;;;;;;;5.68;1.50;;;19.30;70.00;;;;;;6893882;28;20438;-76
2022/07/08 10:59:18;;;;;;;5.97;1.70;;;19.40;69.20;;;;;;6892387;28;20430;-77
2022/07/08 11:02:42;;;;;;;6.43;1.50;;;19.40;68.30;;;;;;6893383;28;20919;-80
2022/07/08 11:06:05;;;;;;;6.93;1.50;;;19.30;68.50;;;;;;6891819;28;20443;-77
2022/07/08 11:09:27;;;;;;;6.78;1.70;;;19.30;69.40;;;;;;6891322;28;20446;-79
2022/07/08 11:12:49;;;;;;;7.22;1.70;;;19.50;71.60;;;;;;6891507;28;20497;-80
2022/07/08 11:16:13;;;;;;;5.68;1.60;;;19.60;69.60;;;;;;6888533;28;20443;-80
2022/07/08 11:19:35;;;;;;;5.57;1.58;;;19.60;68.30;;;;;;6865132;28;20474;-79
2022/07/08 11:22:57;;;;;;;6.60;1.73;;;19.50;70.30;;;;;;6865434;28;20524;-76
2022/07/08 11:26:20;;;;;;;6.80;1.83;;;19.50;70.90;;;;;;6864491;28;20440;-78
2022/07/08 11:29:48;;;;;;;6.07;1.50;;;19.60;70.90;;;;;;6863978;28;20436;-78
2022/07/08 11:33:11;;;;;;;6.82;1.40;;;19.70;69.70;;;;;;6865418;28;20443;-79
2022/07/08 11:36:33;;;;;;;7.33;1.80;;;19.70;68.60;;;;;;6864399;28;20548;-77
2022/07/08 11:39:55;;;;;;;5.75;1.50;;;19.70;68.00;;;;;;6863948;28;20921;-79
2022/07/08 11:43:22;;;;;;;5.88;1.45;;;19.70;67.10;;;;;;6863971;28;20479;-78
2022/07/08 11:46:46;;;;;;;7.50;1.40;;;19.70;68.40;;;;;;6862496;28;20483;-77
2022/07/08 11:50:11;;;;;;;6.10;1.60;;;19.80;70.00;;;;;;6862986;28;20437;-76
2022/07/08 11:53:33;;;;;;;6.47;1.40;;;19.80;68.10;;;;;;6863049;28;20443;-78
2022/07/08 11:56:57;;;;;;;6.47;1.70;;;19.90;69.10;;;;;;6865334;28;20435;-79
2022/07/08 12:00:19;;;;;;;5.57;1.40;;;19.90;70.00;;;;;;6874941;28;20482;-79
2022/07/08 12:03:41;;;;;;;5.95;1.40;;;20.10;70.90;;;;;;6890982;28;20474;-79
2022/07/08 12:07:22;;;;;;;5.72;1.40;;;20.20;69.80;;;;;;6887828;28;20916;-79
2022/07/08 12:10:44;;;;;;;6.03;1.50;;;20.30;70.70;;;;;;6863430;28;20443;-79
2022/07/08 12:14:08;;;;;;;6.10;1.60;;;20.20;66.10;;;;;;6863534;28;20432;-78
2022/07/08 12:17:30;;;;;;;6.82;1.42;;;20.40;68.70;;;;;;6863213;28;20495;-78
2022/07/08 12:20:53;;;;;;;6.82;1.50;;;20.40;68.50;;;;;;6862594;28;20467;-79
2022/07/08 12:24:18;;;;;;;5.88;1.40;;;20.70;65.40;;;;;;6863246;28;20444;-78
2022/07/08 12:27:40;;;;;;;4.03;1.10;;;20.70;65.70;;;;;;6864697;28;20527;-78
2022/07/08 12:31:03;;;;;;;5.43;1.40;;;20.80;67.10;;;;;;6889586;28;20484;-78
2022/07/08 12:34:26;;;;;;;5.55;1.38;;;20.80;66.30;;;;;;6891234;28;20474;-78
2022/07/08 12:37:48;;;;;;;5.53;1.30;;;20.70;69.60;;;;;;6868618;28;20451;-79
2022/07/08 12:41:20;;;;;;;6.97;1.40;;;21.00;68.30;;;;;;6862842;28;20917;-79
2022/07/08 12:44:49;;;;;;;4.73;1.10;;;21.30;67.70;;;;;;6863428;28;20510;-78
2022/07/08 12:48:11;;;;;;;4.85;1.20;;;21.40;64.00;;;;;;6856741;28;20491;-79
2022/07/08 12:51:33;;;;;;;5.38;1.48;;;21.40;63.40;;;;;;6832829;28;20493;-78
2022/07/08 12:54:55;;;;;;;4.57;1.17;;;21.40;63.50;;;;;;6846728;28;20444;-79
2022/07/08 12:58:24;;;;;;;5.50;1.30;;;21.50;63.50;;;;;;6858462;28;20447;-79
2022/07/08 13:01:46;;;;;;;5.00;1.40;;;21.40;64.80;;;;;;6858807;28;20436;-78
2022/07/08 13:05:09;;;;;;;5.18;1.33;;;21.70;63.30;;;;;;6857847;28;20968;-79
2022/07/08 13:08:31;;;;;;;5.38;1.20;;;21.80;62.40;;;;;;6856563;28;20500;-80
2022/07/08 13:11:53;;;;;;;4.90;1.25;;;21.70;64.10;;;;;;6856948;28;20447;-77
2022/07/08 13:15:16;;;;;;;6.82;1.30;;;21.70;62.70;;;;;;6863162;28;21082;-80
2022/07/08 13:18:38;;;;;;;5.65;1.23;;;21.80;62.90;;;;;;6859375;28;20519;-80
2022/07/08 13:22:01;;;;;;;6.53;1.30;;;22.00;63.90;;;;;;6882722;28;20472;-79
2022/07/08 13:25:23;;;;;;;6.53;1.30;;;22.20;64.40;;;;;;6871774;28;20436;-79
2022/07/08 13:28:45;;;;;;;6.60;1.35;;;22.40;63.90;;;;;;6863292;28;20483;-78
2022/07/08 13:32:09;;;;;;;6.10;1.40;;;22.60;64.70;;;;;;6873116;28;20438;-80
2022/07/08 13:35:31;;;;;;;5.45;1.20;;;22.70;62.00;;;;;;6865867;28;20463;-79
2022/07/08 13:38:53;;;;;;;6.47;1.43;;;22.60;60.00;;;;;;6876062;28;20468;-79
2022/07/08 13:42:15;;;;;;;5.30;1.20;;;22.50;62.90;;;;;;6854560;28;20949;-79
2022/07/08 13:45:37;;;;;;;7.60;1.30;;;22.70;62.30;;;;;;6856511;28;20472;-78
2022/07/08 13:49:01;;;;;;;5.95;1.60;;;22.70;60.00;;;;;;6830106;28;20496;-80
2022/07/08 13:52:23;;;;;;;5.63;1.30;;;22.80;60.50;;;;;;6830914;28;20449;-80
2022/07/08 13:55:45;;;;;;;13.52;5.65;;;22.80;58.90;;;;;;6830617;29;20445;-80
2022/07/08 13:59:07;;;;;;;5.80;1.30;;;22.90;59.40;;;;;;6826761;28;20482;-80
2022/07/08 14:02:31;;;;;;;5.07;1.30;;;22.80;59.40;;;;;;6831531;28;20445;-78
2022/07/08 14:05:54;;;;;;;7.40;1.40;;;22.90;59.70;;;;;;6833741;28;20506;-80
2022/07/08 14:09:16;;;;;;;6.00;1.20;;;22.90;60.70;;;;;;6856824;28;20439;-77
2022/07/08 14:12:38;;;;;;;4.78;1.20;;;23.20;59.00;;;;;;6856089;28;20448;-80
2022/07/08 14:16:02;;;;;;;5.65;1.27;;;23.20;60.20;;;;;;6844100;28;20479;-83
2022/07/08 14:19:24;;;;;;;5.40;1.20;;;23.60;61.80;;;;;;6831424;28;20785;-80
2022/07/08 14:22:48;;;;;;;6.20;1.30;;;23.60;60.50;;;;;;6831180;28;20448;-80
2022/07/08 14:26:10;;;;;;;7.17;1.50;;;23.60;57.20;;;;;;6803865;28;20542;-80
2022/07/08 14:29:32;;;;;;;5.63;1.20;;;23.30;56.70;;;;;;6831256;28;20480;-81
2022/07/08 14:32:54;;;;;;;5.75;1.38;;;23.40;56.70;;;;;;6829787;28;20496;-80
2022/07/08 14:36:16;;;;;;;4.97;1.30;;;23.60;57.60;;;;;;6829107;28;20939;-80
2022/07/08 14:39:39;;;;;;;6.73;1.30;;;23.70;56.20;;;;;;6827270;28;20473;-79
2022/07/08 14:43:01;;;;;;;4.30;1.20;;;24.00;59.70;;;;;;6855590;28;20471;-80
2022/07/08 14:46:23;;;;;;;5.60;1.20;;;24.40;57.30;;;;;;6859967;28;20453;-79
2022/07/08 14:49:45;;;;;;;6.57;1.43;;;24.30;57.10;;;;;;6861444;28;20980;-79
2022/07/08 14:53:08;;;;;;;4.80;1.20;;;24.50;57.30;;;;;;6856129;28;20475;-78
2022/07/08 14:56:31;;;;;;;6.15;1.20;;;24.60;55.70;;;;;;6856362;28;20463;-80
2022/07/08 14:59:54;;;;;;;5.15;1.20;;;24.70;57.00;;;;;;6880481;28;20438;-78
2022/07/08 15:03:16;;;;;;;5.07;1.20;;;24.80;54.70;;;;;;6864298;28;20488;-80
2022/07/08 15:06:38;;;;;;;4.40;1.30;;;24.70;56.70;;;;;;6859543;28;20968;-80
2022/07/08 15:10:00;;;;;;;5.63;1.20;;;25.00;55.10;;;;;;6860810;28;21263;-79
2022/07/08 15:13:26;;;;;;;5.15;1.27;;;25.10;55.80;;;;;;6860018;28;20523;-79
2022/07/08 15:16:48;;;;;;;5.38;1.20;;;25.30;54.60;;;;;;6860893;28;20459;-79
2022/07/08 15:20:11;;;;;;;7.15;1.30;;;25.30;54.80;;;;;;6860794;28;20436;-78
2022/07/08 15:23:33;;;;;;;5.20;1.40;;;25.50;53.80;;;;;;6860079;28;20440;-78
2022/07/08 15:26:55;;;;;;;6.90;1.20;;;25.50;54.70;;;;;;6857788;28;20475;-79
2022/07/08 15:30:19;;;;;;;5.97;1.50;;;25.40;53.80;;;;;;6855974;28;20443;-80
2022/07/08 15:33:41;;;;;;;5.50;1.63;;;25.40;55.20;;;;;;6853923;28;20495;-78
2022/07/08 15:37:04;;;;;;;5.10;1.20;;;25.70;54.80;;;;;;6858171;28;20444;-77
2022/07/08 15:40:26;;;;;;;6.72;1.38;;;25.70;53.80;;;;;;6857125;28;20448;-80
2022/07/08 15:43:49;;;;;;;5.43;1.10;;;25.90;52.50;;;;;;6858577;28;20461;-78
2022/07/08 15:47:12;;;;;;;7.87;2.43;;;26.00;53.30;;;;;;6858940;28;20488;-80
2022/07/08 15:50:34;;;;;;;16.80;8.73;;;26.00;53.80;;;;;;6864903;28;20526;-80
2022/07/08 15:53:56;;;;;;;10.07;4.65;;;26.30;52.70;;;;;;6859754;28;20515;-79
2022/07/08 15:57:19;;;;;;;4.63;1.40;;;26.20;52.70;;;;;;6857779;28;20440;-80
2022/07/08 16:00:41;;;;;;;5.37;1.20;;;26.40;52.70;;;;;;6857634;28;20448;-78
2022/07/08 16:04:05;;;;;;;6.87;1.20;;;27.00;50.60;;;;;;6859212;28;20486;-79
2022/07/08 16:07:27;;;;;;;5.90;1.20;;;27.60;50.30;;;;;;6859692;28;20520;-80
2022/07/08 16:10:49;;;;;;;6.03;1.23;;;27.50;51.30;;;;;;6858989;28;20454;-76
2022/07/08 16:14:11;;;;;;;10.52;1.30;;;27.60;50.70;;;;;;6864323;28;20511;-79
2022/07/08 16:17:34;;;;;;;5.70;1.52;;;27.10;51.90;;;;;;6857648;28;20529;-78
2022/07/08 16:20:57;;;;;;;4.53;1.30;;;26.80;50.00;;;;;;6858229;28;20444;-79
2022/07/08 16:24:19;;;;;;;4.60;1.10;;;26.90;50.60;;;;;;6861724;28;21311;-80
2022/07/08 16:27:42;;;;;;;5.38;1.50;;;27.00;50.60;;;;;;6859632;28;20498;-78
2022/07/08 16:31:07;;;;;;;5.15;1.10;;;27.00;52.40;;;;;;6848838;28;20448;-79
2022/07/08 16:34:29;;;;;;;5.90;1.17;;;27.00;51.20;;;;;;6858136;28;20472;-79
2022/07/08 16:37:53;;;;;;;6.40;1.40;;;27.20;50.90;;;;;;6859812;28;20849;-77
2022/07/08 16:41:18;;;;;;;5.88;1.10;;;27.40;51.60;;;;;;6856129;28;20452;-79
2022/07/08 16:44:42;;;;;;;5.35;1.20;;;27.20;51.00;;;;;;6870661;28;20482;-78
2022/07/08 16:48:08;;;;;;;6.53;1.30;;;27.30;51.30;;;;;;6837475;28;21959;-78
2022/07/08 16:51:30;;;;;;;7.00;1.30;;;27.20;51.20;;;;;;6850823;28;20459;-77
2022/07/08 16:54:53;;;;;;;6.50;1.50;;;27.40;50.60;;;;;;6844156;28;20464;-75
2022/07/08 16:58:16;;;;;;;5.55;1.50;;;27.60;50.50;;;;;;6830003;28;20445;-78
2022/07/08 17:01:44;;;;;;;4.82;1.25;;;27.70;49.40;;;;;;6831857;28;20628;-76
2022/07/08 17:05:11;;;;;;;6.05;1.40;;;27.50;48.60;;;;;;6832862;28;20927;-79
2022/07/08 17:08:35;;;;;;;7.18;1.48;;;27.30;49.90;;;;;;6835557;28;20432;-78
2022/07/08 17:11:59;;;;;;;6.25;1.50;;;27.10;49.10;;;;;;6828528;28;20487;-79
2022/07/08 17:15:23;;;;;;;4.75;1.40;;;27.40;50.10;;;;;;6831570;29;20915;-81
2022/07/08 17:18:46;;;;;;;7.20;2.17;;;27.60;48.70;;;;;;6833539;28;20490;-79
2022/07/08 17:22:08;;;;;;;6.50;1.50;;;27.60;49.70;;;;;;6849891;28;20585;-79
2022/07/08 17:25:34;;;;;;;5.20;1.70;;;27.40;49.20;;;;;;6848552;28;20445;-80
2022/07/08 17:32:38;;;;;;;9.15;3.22;;;27.70;49.80;;;;;;6829320;28;20784;-77
2022/07/08 17:36:04;;;;;;;6.07;1.73;;;27.70;48.40;;;;;;6828669;28;20488;-80
2022/07/08 17:39:26;;;;;;;5.97;1.50;;;27.30;49.70;;;;;;6827809;29;20800;-78
2022/07/08 17:42:50;;;;;;;5.28;1.50;;;27.30;49.90;;;;;;6829929;28;20438;-79